CheckWX is a tool to help pilots better visualize weather data.  It is not intended as a substitute for an official pre-flight weather briefing.

13:54:46 UTC

LFRH METAR
Lorient South Brittany (Bretagne Sud) Airport
Lorient/Lann/Bihoué, France
Current

25 mins ago

LFRH 261330Z AUTO 21013KT 9999 BKN016/// BKN033/// BKN056/// ///CB 11/10 Q1013 TEMPO 2500 DZ BKN004 BECMG 22015G25KT
Observed
Jan-26 @ 13:30 UTC
Wind
  • 210° at 13 KTS
Visibility
10,000+ meters
Flight Rules
MVFR
Cloud Levels
  • Broken at 1,600' AGL
  • Broken at 3,300' AGL
  • Broken at 5,600' AGL
Temperature
11°C / 52°F
Dewpoint
10°C / 50°F
Humidity
94%
Altimeter
29.91" Hg
Pressure
1012.92 hPa
Previous

55 mins ago

LFRH 261300Z AUTO 21015KT 9999 FEW017/// SCT046/// BKN060/// ///TCU 11/10 Q1014 BECMG 22015G25KT 4000 RADZ BKN008 OVC012
Observed
Jan-26 @ 13:00 UTC
Wind
  • 210° at 15 KTS
Visibility
10,000+ meters
Flight Rules
VFR
Cloud Levels
  • Few at 1,700' AGL
  • Scattered at 4,600' AGL
  • Broken at 6,000' AGL
Temperature
11°C / 52°F
Dewpoint
10°C / 50°F
Humidity
94%
Altimeter
29.94" Hg
Pressure
1013.92 hPa
Previous

1 hour ago

LFRH 261230Z AUTO 21013KT 9999 FEW017 SCT034 BKN046 11/10 Q1014 BECMG 22015G25KT 4000 RADZ BKN008 OVC012
Observed
Jan-26 @ 12:30 UTC
Wind
  • 210° at 13 KTS
Visibility
10,000+ meters
Flight Rules
VFR
Cloud Levels
  • Few at 1,700' AGL
  • Scattered at 3,400' AGL
  • Broken at 4,600' AGL
Temperature
11°C / 52°F
Dewpoint
10°C / 50°F
Humidity
94%
Altimeter
29.94" Hg
Pressure
1013.92 hPa